Hovedside
METAR-TAF:

METAR-TAF

Lufthavner :

Roskilde lufthavn

Roskilde, Danmark

breddegrad: 55-35N, lengdegrad: 012-08E, høyde over havet: 44 m

Gjeldene værobservasjon

Denne rapporten ble laget for 37 minutter siden, klokken 14:20 UTC
Vind 9 kt fra Vest-sørvest
Temperatur 1°C
Luftfuktighet 93%
Trykk 1012 hPa
Sikt: 4100 m
lett snø, dis

METAR: EKRK 211420Z AUTO 24009KT 4100NDV -SN BR FEW003/// BKN006/// OVC008/// 01/00 Q1012 R88/690195

Tid: 15:57 (14:57 UTC)

Varsel

Denne rapporten ble laget for 52 minutter siden, klokken 14:05 UTC
Varsel gyldig fra 21. klokken 15 UTC til 21. klokken 24 UTC
Vind 10 kt fra Vest-sørvest
Sikt: 8000 m
Spredte skyer i en høyde av 1000 ft
Brutte skyer i en høyde av 2000 ft
Midlertidig
fra 21. klokken 15 UTC til 21. klokken 24 UTC
Sikt: 4000 m
Brutte skyer i en høyde av 800 ft
Brutte skyer i en høyde av 1500 ft, Tårnskyer (cumulus).
lette regnbyger, snø

TAF: EKRK 211405Z 2115/2124 24010KT 8000 SCT010 BKN020 TEMPO 2115/2124 4000 -SHRASN BKN008 BKN015TCU

Værobservasjoner og værvarsel for over 4000 flyplasser (METAR- og TAF-rapporter).

Tilgjengelige stasjoner er representert av de røde og gule prikkene på kartet.

Hold musepekeren over prikken for å se navnet på stasjonen.

Klikk så for å se værobservasjoner og -varsler.

For å forandre kartet kan du klikke på den grønne knappen med svart kryss for å zoome inn, på den grønne knappen med strek for å zoome ut, eller på de grønne pilene for å se tilstøtende kart.


METAR-TAF: